Skip Navigation Links
NOAA logo - Click to go to the NOAA homepage
NOAA's National Weather Service
Alaska Aviation Weather Unit
  NWS logo - Click to go to the NWS homepage
Left Navbar Graphic     02 AKDT = 10 GMT

   
NOAA is celebrating 200 years of science, service, and stewardship. Visit the NOAA 200th celebration Web site to learn more.
USA.gov is the U.S. Government's official Web portal to all Federal, state and local government Web resources and services.
Facebook
NWS on Facebook

AAWU Home :: Display TAF Add Bookmark
TAF PAED 270300Z 2703/2809 32009KT 9999 SCT060 QNH2960INS
      BECMG 2714/2715 36009KT 9999 SCT050 BKN080 QNH2945INS
      BECMG 2805/2806 35009KT 9999 VCSH SCT050 BKN080 QNH2943INS
      TX02/2800Z TNM12/2715Z=
METAR PAED 270458Z AUTO 00000KT 10SM CLR M03/M13 A2959=

METAR PAED 270558Z AUTO 33005KT 10SM CLR M04/M12 A2958=

METAR PAED 270658Z AUTO 00000KT 10SM CLR M05/M12 A2957=

METAR PAED 270758Z AUTO 00000KT 10SM CLR M06/M12 A2956=

METAR PAED 270858Z AUTO 03004KT 10SM CLR M08/M13 A2955=

METAR PAED 270958Z AUTO 01004KT 10SM CLR M09/M13 A2954=


NOAA's National Weather Service
Alaska Aviation Weather Unit
6930 Sand Lake Road
Anchorage, AK 99502-1845
Disclaimer
Credits
Glossary
Privacy Policy
About Us
Career Opportunities
Contact AAWU Internet Services Site last modified: April, 17th 2012